Tuesday, January 23, 2018, 6:54 PM EST
Back to Local

K40B, Clayton Lake

Location: Ashland, ME, United States Lat: 46.617
Local Time: 6:54 PM EST (23:54 GMT) Lon: -69.533
Time Zone: US/Eastern Elev: 1030 ft

Show me the last for .
Show Decoded

2018-01-23 18:16 METAR K40B 232316Z AUTO VRB05KT M03/M02 A2945 RMK AO1 SLP000 T10271022 58037 =
2018-01-23 17:16 METAR K40B 232216Z AUTO VRB04KT M03/M02 A2948 RMK AO1 SLP012 T10251020 56049
                 P0001 =
2018-01-23 16:16 METAR K40B 232116Z AUTO 00000KT M02/M02 A2952 RMK AO1 SLP027 T10241019 56054
                 P0003 60023 =
2018-01-23 15:16 METAR K40B 232016Z AUTO VRB06KT M02/M02 A2956 RMK AO1 PRESRR SLP042 T10231022
                 58058 P0009 =
2018-01-23 14:16 METAR K40B 231916Z AUTO 10006G16KT 050V160 M03/M03 A2962 RMK AO1 SLP065
                 T10261027 56059 P0012 =
2018-01-23 13:16 METAR K40B 231816Z AUTO VRB05KT M05/M06 A2969 RMK AO1 SLP088 T10501063 11050
                 21104 56058 P0010 60050 =
2018-01-23 12:16 METAR K40B 231716Z AUTO 08007G12KT 050V120 M07/M08 A2974 RMK AO1 PRESRR SLP107
                 T10681083 58061 P0009 =
2018-01-23 11:16 METAR K40B 231616Z AUTO VRB06G15KT M08/M09 A2981 RMK AO1 PRESRR SLP130 T10781093
                 58051 P0009 =
2018-01-23 10:16 METAR K40B 231516Z AUTO 08009G14KT M08/M10 A2986 RMK AO1 SLP150 T10841100 58046
                 P0009 60022 =
2018-01-23 09:16 METAR K40B 231416Z AUTO VRB04KT M09/M11 A2993 RMK AO1 SLP171 T10921108 57037
                 P0008 =
2018-01-23 08:16 METAR K40B 231316Z AUTO 08008G14KT M10/M12 A2996 RMK AO1 SLP182 T10991117 58037
                 P0005 =
2018-01-23 07:16 METAR K40B 231216Z AUTO VRB05G13KT M10/M12 A3001 RMK AO1 SLP199 T11041121 11104
                 21125 56037 P0006 60041 70047 =
2018-01-23 06:16 METAR K40B 231116Z AUTO VRB05KT M11/M13 A3004 RMK AO1 SLP210 T11091125 57040
                 P0004 =
2018-01-23 05:16 METAR K40B 231016Z AUTO VRB06KT M12/M14 A3007 RMK AO1 SLP222 T11221139 58041
                 P0011 =
2018-01-23 04:16 METAR K40B 230916Z AUTO 06006KT M12/M14 A3012 RMK AO1 SLP238 T11241141 58027
                 P0010 60020 =
2018-01-23 03:16 METAR K40B 230816Z AUTO VRB04KT M12/M14 A3016 RMK AO1 SLP252 T11241141 58020
                 P0006 =
2018-01-23 02:16 METAR K40B 230716Z AUTO VRB04KT M12/M14 A3020 RMK AO1 SLP263 T11221139 56023
                 P0004 =
2018-01-23 01:16 METAR K40B 230616Z AUTO VRB05KT M12/M14 A3020 RMK AO1 SLP263 T11221139 11104
                 21125 56032 P0004 60006 =
2018-01-23 00:16 METAR K40B 230516Z AUTO VRB06KT M12/M14 A3022 RMK AO1 SLP270 T11221141 410511165
                 58025 P0002 =
2018-01-22 23:16 METAR K40B 230416Z AUTO VRB04KT M12/M14 A3027 RMK AO1 SLP285 T11191138 58008 =
2018-01-22 22:16 METAR K40B 230316Z AUTO VRB04KT M11/M17 A3030 RMK AO1 SLP295 T11091167 55007
                 60000 =
2018-01-22 21:16 METAR K40B 230216Z AUTO VRB03KT M10/M17 A3030 RMK AO1 SLP295 T11041171 55008 =
2018-01-22 20:16 METAR K40B 230116Z AUTO VRB02KT M11/M16 A3029 RMK AO1 SLP293 T11071163 58015
                 P0000 =
2018-01-22 19:16 METAR K40B 230016Z AUTO 00000KT M12/M16 A3032 RMK AO1 SLP304 T11251159 11051
                 21125 58003 =

Support USWX by starting your Amazon purchase here.